createdAt,value
2023-05-03T00:00:08.702Z,99874.25
2023-05-03T00:02:40.491Z,99871.91
2023-05-03T00:05:12.964Z,99877.22
2023-05-03T00:07:45.118Z,99871.06
2023-05-03T00:10:13.765Z,99868.94
2023-05-03T00:12:42.494Z,99871.59
2023-05-03T00:15:11.053Z,99873.88
2023-05-03T00:17:43.566Z,99874.88
2023-05-03T00:20:13.304Z,99875.41
2023-05-03T00:22:41.460Z,99885.22
2023-05-03T00:25:10.426Z,99886.22
2023-05-03T00:27:38.616Z,99881.31
2023-05-03T00:30:08.124Z,99886.66
2023-05-03T00:32:36.949Z,99892.84
2023-05-03T00:35:05.830Z,99885.69
2023-05-03T00:37:34.002Z,99888.06
2023-05-03T00:40:03.874Z,99886.09
2023-05-03T00:42:37.634Z,99893.22
2023-05-03T00:45:07.064Z,99903.09
2023-05-03T00:47:36.775Z,99899.19
2023-05-03T00:50:06.603Z,99907.47
2023-05-03T00:52:35.960Z,99903.28
2023-05-03T00:55:05.398Z,99892.03
2023-05-03T00:57:33.254Z,99893.19
2023-05-03T01:00:01.836Z,99897.56
2023-05-03T01:02:30.405Z,99897.28
2023-05-03T01:04:58.571Z,99903.72
2023-05-03T01:07:26.733Z,99899.81
2023-05-03T01:10:07.573Z,99904.56
2023-05-03T01:13:17.548Z,99902.22
2023-05-03T01:16:21.187Z,99898.84
2023-05-03T01:18:52.220Z,99901.22
2023-05-03T01:21:22.935Z,99909.06
2023-05-03T01:24:07.558Z,99902.75
2023-05-03T01:26:35.578Z,99899.81
2023-05-03T01:29:04.082Z,99902.34
2023-05-03T01:32:00.087Z,99905.00
2023-05-03T01:34:48.786Z,99903.75
2023-05-03T01:37:17.720Z,99906.97
2023-05-03T01:39:58.392Z,99907.69
2023-05-03T01:42:27.741Z,99904.00
2023-05-03T01:44:56.568Z,99912.28
2023-05-03T01:47:24.583Z,99920.44
2023-05-03T01:49:52.764Z,99922.25
2023-05-03T01:52:24.322Z,99914.53
2023-05-03T01:54:52.284Z,99917.91
2023-05-03T01:57:20.251Z,99920.88
2023-05-03T01:59:48.241Z,99918.91
2023-05-03T02:02:16.088Z,99917.78
2023-05-03T02:04:44.379Z,99913.00
2023-05-03T02:07:13.786Z,99914.72
2023-05-03T02:09:41.797Z,99913.28
2023-05-03T02:12:11.806Z,99909.50
2023-05-03T02:14:39.892Z,99903.03
2023-05-03T02:17:08.658Z,99902.38
2023-05-03T02:19:36.871Z,99901.09
2023-05-03T02:22:05.076Z,99899.28
2023-05-03T02:24:36.332Z,99898.16
2023-05-03T02:27:05.188Z,99898.84
2023-05-03T02:29:33.452Z,99902.78
2023-05-03T02:32:06.209Z,99903.91
2023-05-03T02:34:34.383Z,99898.84
2023-05-03T02:37:02.399Z,99904.72
2023-05-03T02:39:31.870Z,99912.31
2023-05-03T02:42:00.814Z,99899.72
2023-05-03T02:44:30.416Z,99900.53
2023-05-03T02:46:59.978Z,99902.50
2023-05-03T02:49:29.136Z,99907.00
2023-05-03T02:51:58.175Z,99905.28
2023-05-03T02:54:26.314Z,99912.03
2023-05-03T02:56:55.093Z,99904.47
2023-05-03T02:59:23.138Z,99913.03
2023-05-03T03:01:52.477Z,99920.16
2023-05-03T03:04:20.988Z,99921.28
2023-05-03T03:06:48.992Z,99923.25
2023-05-03T03:09:18.032Z,99928.72
2023-05-03T03:11:46.874Z,99933.34
2023-05-03T03:14:15.779Z,99929.56
2023-05-03T03:16:45.346Z,99930.66
2023-05-03T03:19:13.920Z,99929.13
2023-05-03T03:21:43.524Z,99929.56
2023-05-03T03:24:12.553Z,99931.94
2023-05-03T03:26:41.636Z,99933.34
2023-05-03T03:29:12.766Z,99937.66
2023-05-03T03:31:45.141Z,99936.69
2023-05-03T03:34:14.133Z,99944.25
2023-05-03T03:36:42.149Z,99950.97
2023-05-03T03:39:12.035Z,99954.63
2023-05-03T03:41:41.512Z,99947.22
2023-05-03T03:44:09.417Z,99953.38
2023-05-03T03:46:37.677Z,99947.06
2023-05-03T03:49:05.736Z,99950.56
2023-05-03T03:51:33.850Z,99949.03
2023-05-03T03:54:01.949Z,99956.72
2023-05-03T03:56:37.058Z,99953.53
2023-05-03T03:59:06.739Z,99958.28
2023-05-03T04:01:34.750Z,99958.28
2023-05-03T04:04:02.827Z,99963.63
2023-05-03T04:06:32.778Z,99965.00
2023-05-03T04:09:04.428Z,99966.81
2023-05-03T04:11:35.146Z,99968.09
2023-05-03T04:14:04.779Z,99977.38
2023-05-03T04:16:33.714Z,99978.88
2023-05-03T04:19:05.030Z,99987.44
2023-05-03T04:21:35.210Z,99986.88
2023-05-03T04:24:06.300Z,99999.19
2023-05-03T04:26:35.339Z,99987.41
2023-05-03T04:29:15.058Z,99997.34
2023-05-03T04:31:45.294Z,99990.22
2023-05-03T04:34:16.336Z,100002.66
2023-05-03T04:36:47.741Z,100007.28
2023-05-03T04:39:17.667Z,100004.56
2023-05-03T04:41:47.897Z,100010.81
2023-05-03T04:44:16.015Z,100017.00
2023-05-03T04:46:48.740Z,100026.97
2023-05-03T04:49:18.211Z,100033.97
2023-05-03T04:51:48.441Z,100036.47
2023-05-03T04:54:19.831Z,100043.59
2023-05-03T04:56:49.582Z,100046.53
2023-05-03T04:59:19.757Z,100052.44
2023-05-03T05:01:49.226Z,100058.28
2023-05-03T05:04:18.258Z,100061.13
2023-05-03T05:06:53.705Z,100065.22
2023-05-03T05:09:29.554Z,100077.81
2023-05-03T05:11:59.983Z,100078.53
2023-05-03T05:14:34.575Z,100084.09
2023-05-03T05:17:04.042Z,100089.28
2023-05-03T05:19:32.300Z,100102.31
2023-05-03T05:22:00.646Z,100101.72
2023-05-03T05:24:38.651Z,100109.97
2023-05-03T05:27:07.315Z,100119.81
2023-05-03T05:29:36.134Z,100117.53
2023-05-03T05:32:05.512Z,100123.22
2023-05-03T05:34:43.690Z,100124.81
2023-05-03T05:37:16.561Z,100125.03
2023-05-03T05:39:53.247Z,100130.91
2023-05-03T05:42:23.588Z,100136.22
2023-05-03T05:44:52.500Z,100131.97
2023-05-03T05:47:22.031Z,100139.22
2023-05-03T05:49:52.480Z,100151.78
2023-05-03T05:52:22.114Z,100151.66
2023-05-03T05:54:50.336Z,100158.94
2023-05-03T05:57:18.592Z,100161.66
2023-05-03T05:59:46.577Z,100166.38
2023-05-03T06:02:23.518Z,100169.03
2023-05-03T06:04:51.955Z,100167.44
2023-05-03T06:07:19.916Z,100175.75
2023-05-03T06:09:48.914Z,100182.13
2023-05-03T06:12:17.323Z,100185.16
2023-05-03T06:15:01.325Z,100189.03
2023-05-03T06:17:34.268Z,100190.63
2023-05-03T06:20:04.882Z,100189.19
2023-05-03T06:22:33.153Z,100202.31
2023-05-03T06:25:02.774Z,100208.41
2023-05-03T06:27:31.169Z,100201.78
2023-05-03T06:29:59.307Z,100199.84
2023-05-03T06:32:28.125Z,100196.56
2023-05-03T06:34:56.324Z,100206.41
2023-05-03T06:37:24.203Z,100210.44
2023-05-03T06:39:52.505Z,100206.38
2023-05-03T06:42:21.321Z,100205.94
2023-05-03T06:44:50.690Z,100203.44
2023-05-03T06:47:20.680Z,100206.59
2023-05-03T06:49:49.143Z,100199.78
2023-05-03T06:52:17.315Z,100200.63
2023-05-03T06:54:45.664Z,100201.50
2023-05-03T06:57:13.881Z,100187.28
2023-05-03T06:59:42.246Z,100196.19
2023-05-03T07:02:10.298Z,100201.00
2023-05-03T07:04:39.888Z,100192.09
2023-05-03T07:07:08.856Z,100194.09
2023-05-03T07:09:43.290Z,100197.47
2023-05-03T07:12:12.376Z,100190.84
2023-05-03T07:14:40.853Z,100193.22
2023-05-03T07:17:09.746Z,100190.63
2023-05-03T07:19:39.004Z,100179.50
2023-05-03T07:22:07.406Z,100181.88
2023-05-03T07:24:35.319Z,100183.16
2023-05-03T07:27:03.576Z,100180.06
2023-05-03T07:29:31.614Z,100174.66
2023-05-03T07:32:00.396Z,100171.84
2023-05-03T07:34:28.486Z,100173.09
2023-05-03T07:36:56.991Z,100170.84
2023-05-03T07:39:25.117Z,100171.69
2023-05-03T07:41:53.671Z,100164.44
2023-05-03T07:44:22.850Z,100171.97
2023-05-03T07:46:52.629Z,100169.44
2023-05-03T07:49:20.749Z,100171.47
2023-05-03T07:51:49.138Z,100181.97
2023-05-03T07:54:17.541Z,100166.59
2023-05-03T07:56:45.780Z,100168.50
2023-05-03T07:59:13.914Z,100163.94
2023-05-03T08:01:42.003Z,100161.88
2023-05-03T08:04:10.523Z,100171.81
2023-05-03T08:06:40.788Z,100170.28
2023-05-03T08:09:09.153Z,100161.19
2023-05-03T08:11:37.214Z,100167.94
2023-05-03T08:14:05.370Z,100172.88
2023-05-03T08:16:33.607Z,100171.13
2023-05-03T08:19:02.418Z,100164.03
2023-05-03T08:21:34.936Z,100160.66
2023-05-03T08:24:06.237Z,100159.69
2023-05-03T08:26:35.210Z,100159.31
2023-05-03T08:29:03.611Z,100166.38
2023-05-03T08:31:31.868Z,100162.75
2023-05-03T08:34:02.003Z,100156.00
2023-05-03T08:36:32.111Z,100156.00
2023-05-03T08:39:03.904Z,100150.72
2023-05-03T08:41:33.466Z,100156.44
2023-05-03T08:44:04.320Z,100156.19
2023-05-03T08:46:32.758Z,100164.41
2023-05-03T08:49:01.759Z,100163.22
2023-05-03T08:51:30.456Z,100157.03
2023-05-03T08:53:59.621Z,100173.75
2023-05-03T08:56:39.629Z,100160.31
2023-05-03T08:59:08.948Z,100176.88
2023-05-03T09:01:39.228Z,100180.00
2023-05-03T09:04:09.432Z,100177.84
2023-05-03T09:06:38.670Z,100171.25
2023-05-03T09:09:08.979Z,100176.53
2023-05-03T09:11:39.678Z,100169.63
2023-05-03T09:14:19.386Z,100187.84
2023-05-03T09:16:48.493Z,100186.78
2023-05-03T09:19:17.351Z,100190.00
2023-05-03T09:21:51.674Z,100187.41
2023-05-03T09:24:22.481Z,100179.66
2023-05-03T09:26:53.775Z,100194.28
2023-05-03T09:29:36.303Z,100195.28
2023-05-03T09:32:07.776Z,100198.19
2023-05-03T09:34:37.221Z,100198.69
2023-05-03T09:37:05.618Z,100196.69
2023-05-03T09:39:34.990Z,100192.84
2023-05-03T09:42:19.071Z,100197.72
2023-05-03T09:44:51.854Z,100203.00
2023-05-03T09:47:21.802Z,100217.81
2023-05-03T09:49:50.043Z,100216.75
2023-05-03T09:52:18.148Z,100212.25
2023-05-03T09:54:46.925Z,100213.47
2023-05-03T09:57:17.013Z,100214.69
2023-05-03T09:59:46.657Z,100210.09
2023-05-03T10:02:16.487Z,100219.31
2023-05-03T10:04:52.549Z,100214.38
2023-05-03T10:07:23.438Z,100212.13
2023-05-03T10:09:52.280Z,100235.88
2023-05-03T10:12:21.645Z,100232.56
2023-05-03T10:14:54.088Z,100241.00
2023-05-03T10:17:47.344Z,100230.44
2023-05-03T10:20:37.181Z,100243.28
2023-05-03T10:23:05.492Z,100237.75
2023-05-03T10:25:37.353Z,100240.47
2023-05-03T10:28:07.468Z,100239.09
2023-05-03T10:30:40.808Z,100243.00
2023-05-03T10:33:15.107Z,100246.06
2023-05-03T10:35:52.788Z,100246.75
2023-05-03T10:38:27.405Z,100242.19
2023-05-03T10:40:57.142Z,100244.59
2023-05-03T10:43:32.006Z,100249.00
2023-05-03T10:46:05.715Z,100253.34
2023-05-03T10:48:36.897Z,100251.19
2023-05-03T10:51:29.126Z,100249.56
2023-05-03T10:53:57.235Z,100249.00
2023-05-03T10:56:25.452Z,100244.97
2023-05-03T10:58:57.777Z,100249.50
2023-05-03T11:01:28.288Z,100260.22
2023-05-03T11:04:13.883Z,100247.25
2023-05-03T11:06:42.599Z,100252.81
2023-05-03T11:09:14.529Z,100256.91
2023-05-03T11:11:43.752Z,100256.75
2023-05-03T11:14:13.722Z,100256.75
2023-05-03T11:16:48.391Z,100254.00
2023-05-03T11:19:19.686Z,100251.28
2023-05-03T11:21:48.601Z,100252.06
2023-05-03T11:24:16.990Z,100253.88
2023-05-03T11:26:45.458Z,100256.72
2023-05-03T11:29:14.596Z,100254.25
2023-05-03T11:31:43.625Z,100251.59
2023-05-03T11:34:13.548Z,100259.50
2023-05-03T11:36:42.778Z,100249.66
2023-05-03T11:39:13.474Z,100254.72
2023-05-03T11:41:42.468Z,100241.84
2023-05-03T11:44:17.267Z,100247.53
2023-05-03T11:46:48.763Z,100247.69
2023-05-03T11:49:21.023Z,100249.44
2023-05-03T11:51:54.336Z,100245.81
2023-05-03T11:54:26.774Z,100248.41
2023-05-03T11:56:58.381Z,100254.84
2023-05-03T11:59:39.821Z,100259.00
2023-05-03T12:02:12.133Z,100256.25
2023-05-03T12:04:45.338Z,100248.00
2023-05-03T12:07:17.917Z,100241.91
2023-05-03T12:09:53.062Z,100231.47
2023-05-03T12:12:32.149Z,100222.25
2023-05-03T12:15:04.477Z,100229.19
2023-05-03T12:17:38.819Z,100231.69
2023-05-03T12:23:03.792Z,100230.19
2023-05-03T12:25:35.578Z,100226.34
2023-05-03T12:30:40.965Z,100206.44
2023-05-03T12:33:10.554Z,100190.69
2023-05-03T12:35:40.991Z,100189.66
2023-05-03T12:38:10.517Z,100181.53
2023-05-03T12:40:39.805Z,100171.56
2023-05-03T12:43:08.646Z,100171.63
2023-05-03T12:45:40.227Z,100167.84
2023-05-03T12:48:09.774Z,100170.38
2023-05-03T12:50:39.378Z,100152.28
2023-05-03T12:53:09.929Z,100144.88
2023-05-03T12:55:43.638Z,100154.06
2023-05-03T12:58:43.139Z,100152.50
2023-05-03T13:03:34.207Z,100161.13
2023-05-03T13:06:13.291Z,100169.06
2023-05-03T13:11:14.174Z,100161.31
2023-05-03T13:13:42.972Z,100158.97
2023-05-03T13:16:11.695Z,100159.84
2023-05-03T13:18:40.193Z,100142.47
2023-05-03T13:21:08.364Z,100149.06
2023-05-03T13:23:37.630Z,100145.56
2023-05-03T13:26:07.320Z,100144.53
2023-05-03T13:28:35.416Z,100130.63
2023-05-03T13:31:03.365Z,100146.56
2023-05-03T13:33:32.968Z,100138.16
2023-05-03T13:36:00.966Z,100130.41
2023-05-03T13:38:29.010Z,100115.81
2023-05-03T13:40:57.465Z,100115.31
2023-05-03T13:43:25.618Z,100121.38
2023-05-03T13:46:02.315Z,100130.28
2023-05-03T13:48:32.405Z,100130.28
2023-05-03T13:51:00.914Z,100121.38
2023-05-03T13:53:29.577Z,100107.47
2023-05-03T13:55:57.531Z,100119.16
2023-05-03T13:58:26.623Z,100107.63
2023-05-03T14:00:54.849Z,100107.97
2023-05-03T14:03:23.781Z,100102.19
2023-05-03T14:05:52.261Z,100115.00
2023-05-03T14:08:20.824Z,100116.50
2023-05-03T14:10:49.199Z,100126.34
2023-05-03T14:13:17.392Z,100121.88
2023-05-03T14:15:46.450Z,100118.84
2023-05-03T14:18:14.926Z,100126.38
2023-05-03T14:20:45.941Z,100111.56
2023-05-03T14:23:14.216Z,100102.09
2023-05-03T14:25:43.078Z,100110.97
2023-05-03T14:28:11.171Z,100111.16
2023-05-03T14:30:39.345Z,100115.34
2023-05-03T14:33:07.855Z,100119.03
2023-05-03T14:35:35.840Z,100123.56
2023-05-03T14:38:06.961Z,100123.81
2023-05-03T14:40:35.001Z,100133.91
2023-05-03T14:43:03.156Z,100117.41
2023-05-03T14:45:31.978Z,100134.50
2023-05-03T14:47:59.995Z,100117.75
2023-05-03T14:50:28.270Z,100123.31
2023-05-03T14:52:57.300Z,100131.06
2023-05-03T14:55:25.552Z,100124.38
2023-05-03T14:57:55.925Z,100125.41
2023-05-03T15:00:26.166Z,100119.81
2023-05-03T15:02:57.020Z,100117.34
2023-05-03T15:05:25.212Z,100124.28
2023-05-03T15:07:53.426Z,100117.72
2023-05-03T15:10:21.866Z,100126.81
2023-05-03T15:12:49.907Z,100126.63
2023-05-03T15:15:18.392Z,100132.44
2023-05-03T15:17:46.631Z,100123.50
2023-05-03T15:20:15.460Z,100123.59
2023-05-03T15:22:44.090Z,100125.22
2023-05-03T15:25:12.510Z,100140.53
2023-05-03T15:27:40.510Z,100145.22
2023-05-03T15:30:09.343Z,100158.03
2023-05-03T15:32:37.455Z,100147.47
2023-05-03T15:35:06.282Z,100144.94
2023-05-03T15:37:37.684Z,100139.25
2023-05-03T15:40:09.504Z,100144.50
2023-05-03T15:42:39.099Z,100153.69
2023-05-03T15:45:13.303Z,100156.59
2023-05-03T15:47:42.336Z,100157.41
2023-05-03T15:50:11.160Z,100162.94
2023-05-03T15:52:39.485Z,100165.97
2023-05-03T15:55:10.074Z,100162.16
2023-05-03T15:57:38.613Z,100163.84
2023-05-03T16:00:09.235Z,100157.22
2023-05-03T16:02:38.273Z,100168.81
2023-05-03T16:05:06.862Z,100162.31
2023-05-03T16:07:34.987Z,100167.78
2023-05-03T16:10:04.267Z,100172.44
2023-05-03T16:12:32.926Z,100171.75
2023-05-03T16:15:01.522Z,100171.81
2023-05-03T16:17:29.719Z,100182.19
2023-05-03T16:19:58.351Z,100176.81
2023-05-03T16:22:27.377Z,100166.16
2023-05-03T16:24:55.787Z,100171.09
2023-05-03T16:27:23.800Z,100175.44
2023-05-03T16:29:52.184Z,100168.47
2023-05-03T16:32:20.425Z,100173.84
2023-05-03T16:34:50.389Z,100171.53
2023-05-03T16:37:19.299Z,100167.44
2023-05-03T16:39:47.437Z,100155.47
2023-05-03T16:42:15.627Z,100155.25
2023-05-03T16:44:43.758Z,100150.31
2023-05-03T16:47:12.372Z,100148.16
2023-05-03T16:49:40.950Z,100153.28
2023-05-03T16:52:10.481Z,100152.91
2023-05-03T16:54:38.942Z,100154.06
2023-05-03T16:57:07.052Z,100159.56
2023-05-03T16:59:36.040Z,100160.03
2023-05-03T17:02:05.746Z,100157.47
2023-05-03T17:04:34.277Z,100160.00
2023-05-03T17:07:02.971Z,100159.66
2023-05-03T17:09:31.777Z,100142.84
2023-05-03T17:12:03.509Z,100152.94
2023-05-03T17:14:31.978Z,100159.22
2023-05-03T17:17:00.310Z,100171.84
2023-05-03T17:19:31.002Z,100170.56
2023-05-03T17:22:00.072Z,100172.16
2023-05-03T17:24:28.680Z,100179.88
2023-05-03T17:26:57.262Z,100198.25
2023-05-03T17:29:26.034Z,100192.72
2023-05-03T17:31:54.312Z,100202.38
2023-05-03T17:34:23.150Z,100208.88
2023-05-03T17:36:52.028Z,100214.47
2023-05-03T17:39:20.286Z,100212.41
2023-05-03T17:41:48.779Z,100210.75
2023-05-03T17:44:17.013Z,100215.13
2023-05-03T17:46:45.205Z,100214.78
2023-05-03T17:49:13.511Z,100216.31
2023-05-03T17:51:41.925Z,100229.94
2023-05-03T17:54:10.366Z,100224.13
2023-05-03T17:56:38.876Z,100213.44
2023-05-03T17:59:07.557Z,100220.50
2023-05-03T18:01:36.139Z,100233.69
2023-05-03T18:04:04.667Z,100236.50
2023-05-03T18:06:33.460Z,100231.16
2023-05-03T18:09:03.478Z,100237.41
2023-05-03T18:11:31.571Z,100244.69
2023-05-03T18:14:00.133Z,100245.50
2023-05-03T18:16:29.025Z,100240.53
2023-05-03T18:18:58.152Z,100247.22
2023-05-03T18:21:28.304Z,100253.63
2023-05-03T18:23:57.361Z,100254.69
2023-05-03T18:26:25.708Z,100260.03
2023-05-03T18:28:54.584Z,100259.41
2023-05-03T18:31:23.297Z,100264.34
2023-05-03T18:33:51.635Z,100268.19
2023-05-03T18:36:22.114Z,100265.03
2023-05-03T18:38:53.951Z,100275.31
2023-05-03T18:41:23.338Z,100276.81
2023-05-03T18:43:52.176Z,100273.19
2023-05-03T18:46:21.301Z,100281.63
2023-05-03T18:48:50.034Z,100267.63
2023-05-03T18:51:18.761Z,100269.84
2023-05-03T18:53:46.987Z,100272.72
2023-05-03T18:56:15.162Z,100274.66
2023-05-03T18:58:44.038Z,100279.50
2023-05-03T19:01:12.275Z,100273.13
2023-05-03T19:03:40.645Z,100269.00
2023-05-03T19:06:08.786Z,100271.66
2023-05-03T19:08:37.028Z,100271.06
2023-05-03T19:11:10.382Z,100272.91
2023-05-03T19:13:39.316Z,100263.22
2023-05-03T19:16:07.430Z,100256.34
2023-05-03T19:18:41.791Z,100262.03
2023-05-03T19:21:13.441Z,100251.72
2023-05-03T19:23:42.100Z,100252.97
2023-05-03T19:26:11.083Z,100253.31
2023-05-03T19:28:39.190Z,100255.63
2023-05-03T19:31:07.371Z,100262.28
2023-05-03T19:33:36.053Z,100253.72
2023-05-03T19:36:08.158Z,100262.31
2023-05-03T19:38:36.654Z,100257.63
2023-05-03T19:41:14.108Z,100259.81
2023-05-03T19:43:42.800Z,100259.09
2023-05-03T19:46:11.192Z,100262.63
2023-05-03T19:48:39.588Z,100255.84
2023-05-03T19:51:16.761Z,100260.94
2023-05-03T19:53:47.214Z,100263.13
2023-05-03T19:56:18.529Z,100264.47
2023-05-03T19:58:46.915Z,100262.19
2023-05-03T20:01:15.530Z,100264.81
2023-05-03T20:03:44.523Z,100277.38
2023-05-03T20:06:14.191Z,100269.41
2023-05-03T20:08:42.460Z,100268.69
2023-05-03T20:11:10.879Z,100270.50
2023-05-03T20:13:39.111Z,100274.84
2023-05-03T20:16:08.509Z,100272.19
2023-05-03T20:18:36.768Z,100269.16
2023-05-03T20:21:05.448Z,100276.03
2023-05-03T20:23:33.699Z,100279.63
2023-05-03T20:26:03.018Z,100276.75
2023-05-03T20:28:32.933Z,100282.66
2023-05-03T20:31:01.427Z,100288.44
2023-05-03T20:33:29.794Z,100285.06
2023-05-03T20:35:58.194Z,100281.31
2023-05-03T20:38:26.302Z,100283.63
2023-05-03T20:40:54.618Z,100282.28
2023-05-03T20:43:22.833Z,100283.13
2023-05-03T20:45:51.293Z,100280.19
2023-05-03T20:48:20.688Z,100286.94
2023-05-03T20:50:50.568Z,100292.03
2023-05-03T20:53:19.516Z,100287.03
2023-05-03T20:55:47.701Z,100292.63
2023-05-03T20:58:16.508Z,100290.19
2023-05-03T21:00:44.792Z,100291.97
2023-05-03T21:03:13.185Z,100295.75
2023-05-03T21:05:41.881Z,100290.59
2023-05-03T21:08:10.555Z,100299.63
2023-05-03T21:10:38.869Z,100304.19
2023-05-03T21:13:07.382Z,100306.97
2023-05-03T21:15:36.666Z,100303.81
2023-05-03T21:18:06.789Z,100301.53
2023-05-03T21:20:39.744Z,100310.13
2023-05-03T21:23:08.087Z,100297.72
2023-05-03T21:25:36.297Z,100303.94
2023-05-03T21:28:04.755Z,100301.19
2023-05-03T21:30:32.996Z,100298.22
2023-05-03T21:33:01.432Z,100301.16
2023-05-03T21:35:30.098Z,100303.19
2023-05-03T21:37:59.040Z,100308.69
2023-05-03T21:40:28.483Z,100308.19
2023-05-03T21:42:57.038Z,100302.97
2023-05-03T21:45:25.717Z,100306.16
2023-05-03T21:47:54.241Z,100303.84
2023-05-03T21:50:23.875Z,100311.72
2023-05-03T21:52:52.288Z,100312.59
2023-05-03T21:55:20.696Z,100308.47
2023-05-03T21:57:49.815Z,100306.56
2023-05-03T22:00:20.644Z,100310.91
2023-05-03T22:02:50.186Z,100301.16
2023-05-03T22:05:18.504Z,100306.97
2023-05-03T22:07:48.686Z,100310.38
2023-05-03T22:10:17.514Z,100304.97
2023-05-03T22:12:46.429Z,100309.66
2023-05-03T22:15:16.377Z,100316.13
2023-05-03T22:17:45.033Z,100313.38
2023-05-03T22:20:13.524Z,100316.88
2023-05-03T22:22:42.360Z,100314.34
2023-05-03T22:25:21.855Z,100317.63
2023-05-03T22:27:50.805Z,100315.72
2023-05-03T22:30:20.267Z,100320.19
2023-05-03T22:32:49.757Z,100318.91
2023-05-03T22:35:18.524Z,100323.44
2023-05-03T22:37:49.149Z,100319.94
2023-05-03T22:40:17.166Z,100317.63
2023-05-03T22:42:45.250Z,100322.06
2023-05-03T22:45:13.936Z,100327.44
2023-05-03T22:47:43.664Z,100324.47
2023-05-03T22:50:12.887Z,100324.38
2023-05-03T22:52:42.006Z,100324.81
2023-05-03T22:55:10.686Z,100324.59
2023-05-03T22:57:38.779Z,100328.97
2023-05-03T23:00:10.553Z,100333.69
2023-05-03T23:02:38.720Z,100331.41
2023-05-03T23:05:07.803Z,100330.16
2023-05-03T23:07:35.992Z,100326.06
2023-05-03T23:10:07.755Z,100329.56
2023-05-03T23:12:36.633Z,100333.63
2023-05-03T23:15:06.026Z,100332.66
2023-05-03T23:17:34.662Z,100331.09
2023-05-03T23:20:03.089Z,100332.25
2023-05-03T23:22:31.568Z,100323.03
2023-05-03T23:25:00.219Z,100323.91
2023-05-03T23:27:28.673Z,100329.91
2023-05-03T23:29:57.288Z,100320.03
2023-05-03T23:32:26.821Z,100325.59
2023-05-03T23:34:55.529Z,100317.84
2023-05-03T23:37:24.808Z,100319.84
2023-05-03T23:39:53.851Z,100322.50
2023-05-03T23:42:23.373Z,100321.22
2023-05-03T23:44:55.248Z,100316.31
2023-05-03T23:47:24.621Z,100322.28
2023-05-03T23:49:52.963Z,100327.41
2023-05-03T23:52:21.458Z,100318.06
2023-05-03T23:54:50.887Z,100318.72
2023-05-03T23:57:19.022Z,100319.38
2023-05-03T23:59:47.057Z,100318.91
